Terminal Aerodrome Forecast
Issued by NWS Charleston, WV

Current Version | Previous Version | Graphics & Text | Print | Product List | Glossary On
Versions: 1 2 3 4 5 6 7 8 9 10 11 12 13 14 15 16 17 18 19 20 21 22 23 24 25
000
FTUS41 KRLX 250540
TAFEKN
TAF
KEKN 250540Z 2506/2606 16011KT P6SM SCT150
     FM251100 21012G20KT 5SM -SHRA OVC050
     FM251200 22014G35KT 2SM +SHRA OVC025
     FM251300 25010G23KT 3SM -SHRA OVC025
     FM251400 26015G28KT P6SM OVC035
     FM252000 27016G29KT P6SM OVC030
     FM260000 27014G27KT 5SM -SHSN OVC014=

USA.gov is the U.S. government's official web portal to all federal, state and local government web resources and services.